Tropical Cyclones
[Index]
Main Index Home Page Stock Weather Photos Extreme Storms Discussion Storm News and Storm Chasing Reports Tropical Cyclones / Hurricanes / Typhoons Weather Data and Links Wild Fires / Bushfires Weather Observation Techniques Weather Picture Catalogue Tornado Pictures and Reports Stock Video Footage and DVDs for sale
Season 2005-2006 Tropical Cyclone WATI Track Map
Season 2005-2006 Summaries: [BoM-AU] [JTWC-AU] [JTWC-SIO] [JTWC-SPAC] [JTWC-SH]
<<- Previous TC | JTWC 2005-2006 Season | Next TC ->>

click for intensity scale information  Lat/long Grid: Show Hide

 Date Labels: Show Hide

Joint Typhoon Warning Centre Cyclone Data

Name: WATI

18 Mar 2006 00:00 UTC to 25 Mar 2006 06:00 UTC

    date/time    lat    long     hPa   cat  kts
2006-03-18 00   13.9   171.8    1006         15          
2006-03-18 06   14.5   170.5    1006         15          
2006-03-18 12   14.7   169.1    1004         20          
2006-03-18 18   14.8   167.7    1000         30          
2006-03-19 00   15.3   166.0    1000         30          
2006-03-19 06   15.6   164.4    1000         30          
2006-03-19 12   16.1   162.9     991    1    45          
2006-03-19 18   16.9   161.7     991    1    45          
2006-03-20 00   17.0   160.2     984    2    55          
2006-03-20 00   17.0   160.2     984    2    55          
2006-03-20 06   17.3   158.9     984    2    55          
2006-03-20 06   17.3   158.9     984    2    55          
2006-03-20 12   17.4   157.7     984    2    55          
2006-03-20 12   17.4   157.7     984    2    55          
2006-03-20 18   17.5   156.5     984    2    55          
2006-03-20 18   17.5   156.5     984    2    55          
2006-03-21 00   17.6   155.6     984    2    55          
2006-03-21 00   17.6   155.6     984    2    55          
2006-03-21 06   17.7   154.9     976    2    65          
2006-03-21 06   17.7   154.9     976    2    65          
2006-03-21 12   17.6   154.2     976    2    65          
2006-03-21 12   17.6   154.2     976    2    65          
2006-03-21 18   17.6   153.8     972    2    70          
2006-03-21 18   17.6   153.8     972    2    70          
2006-03-21 18   17.6   153.8     972    2    70          
2006-03-22 00   17.8   153.8     967    3    75          
2006-03-22 00   17.8   153.8     967    3    75          
2006-03-22 00   17.8   153.8     967    3    75          
2006-03-22 06   18.0   153.8     963    3    80          
2006-03-22 06   18.0   153.8     963    3    80          
2006-03-22 06   18.0   153.8     963    3    80          
2006-03-22 12   18.2   153.9     967    3    75          
2006-03-22 12   18.2   153.9     967    3    75          
2006-03-22 12   18.2   153.9     967    3    75          
2006-03-22 18   18.4   154.2     967    3    75          
2006-03-22 18   18.4   154.2     967    3    75          
2006-03-22 18   18.4   154.2     967    3    75          
2006-03-23 00   18.7   154.8     970    2    70          
2006-03-23 00   18.7   154.8     970    2    70          
2006-03-23 00   18.7   154.8     970    2    70          
2006-03-23 06   18.9   155.4     976    2    65          
2006-03-23 06   18.9   155.4     976    2    65          
2006-03-23 12   19.4   156.3     976    2    65          
2006-03-23 12   19.4   156.3     976    2    65          
2006-03-23 18   20.1   157.4     976    2    65          
2006-03-23 18   20.1   157.4     976    2    65          
2006-03-24 00   21.2   158.8     974    2    65          
2006-03-24 00   21.2   158.8     974    2    65          
2006-03-24 06   22.6   159.8     978    2    60          
2006-03-24 06   22.6   159.8     978    2    60          
2006-03-24 12   24.0   160.8     991    1    45          
2006-03-24 18   25.4   161.6     997         35          
2006-03-25 00   26.9   162.3    1000         30          
2006-03-25 06   28.3   163.3     997         35          
Winds are 1-min average.

Tropical cyclone tracks developed by Michael Bath using data from the Joint Typhoon Warning Centre Best Tracks and Google Maps.


[Australian Severe Weather index] [Copyright Notice] [Email Contacts] [Search This Site] [Privacy Policy]
Document: tropical_cyclone_wati.htm Updated: 28 June 2017